createdAt,value
2022-11-10T00:00:22.575Z,21.00
2022-11-10T00:00:45.212Z,21.10
2022-11-10T00:01:09.256Z,21.00
2022-11-10T00:01:32.014Z,21.20
2022-11-10T00:01:54.661Z,21.30
2022-11-10T00:02:17.248Z,21.10
2022-11-10T00:02:39.851Z,21.00
2022-11-10T00:03:02.624Z,21.00
2022-11-10T00:03:28.335Z,21.10
2022-11-10T00:03:51.126Z,21.10
2022-11-10T00:04:14.154Z,20.80
2022-11-10T00:04:36.840Z,20.70
2022-11-10T00:04:59.495Z,20.90
2022-11-10T00:05:22.146Z,21.00
2022-11-10T00:05:44.742Z,21.20
2022-11-10T00:06:08.611Z,21.20
2022-11-10T00:06:31.279Z,21.10
2022-11-10T00:06:54.095Z,21.20
2022-11-10T00:07:19.641Z,21.10
2022-11-10T00:07:42.316Z,21.00
2022-11-10T00:08:06.271Z,21.00
2022-11-10T00:08:29.033Z,21.10
2022-11-10T00:08:51.888Z,21.10
2022-11-10T00:09:14.649Z,21.00
2022-11-10T00:09:37.399Z,21.00
2022-11-10T00:10:00.102Z,21.20
2022-11-10T00:10:22.770Z,21.10
2022-11-10T00:11:02.052Z,21.00
2022-11-10T00:11:24.755Z,21.30
2022-11-10T00:11:47.438Z,20.90
2022-11-10T00:12:10.170Z,20.80
2022-11-10T00:12:34.422Z,20.60
2022-11-10T00:13:00.894Z,20.50
2022-11-10T00:13:24.787Z,20.60
2022-11-10T00:14:07.417Z,20.60
2022-11-10T00:14:49.547Z,20.60
2022-11-10T00:15:30.869Z,20.60
2022-11-10T00:16:12.128Z,20.80
2022-11-10T00:16:53.442Z,20.90
2022-11-10T00:17:16.086Z,20.80
2022-11-10T00:17:38.855Z,20.90
2022-11-10T00:18:04.222Z,20.80
2022-11-10T00:18:26.922Z,21.10
2022-11-10T00:18:49.544Z,21.10
2022-11-10T00:19:12.273Z,21.00
2022-11-10T00:19:35.303Z,21.20
2022-11-10T00:19:57.989Z,21.30
2022-11-10T00:20:20.717Z,21.30
2022-11-10T00:20:43.507Z,21.30
2022-11-10T00:21:07.016Z,21.00
2022-11-10T00:21:29.652Z,20.90
2022-11-10T00:21:52.977Z,20.80
2022-11-10T00:22:17.957Z,20.70
2022-11-10T00:22:44.607Z,20.70
2022-11-10T00:23:11.110Z,20.90
2022-11-10T00:23:37.708Z,21.20
2022-11-10T00:24:05.311Z,21.30
2022-11-10T00:24:32.259Z,21.30
2022-11-10T00:24:59.112Z,21.30
2022-11-10T00:25:25.798Z,21.00
2022-11-10T00:25:51.653Z,20.80
2022-11-10T00:26:18.557Z,20.90
2022-11-10T00:26:45.057Z,21.00
2022-11-10T00:27:11.700Z,20.50
2022-11-10T00:27:40.148Z,20.50
2022-11-10T00:28:06.860Z,20.70
2022-11-10T00:28:35.502Z,20.70
2022-11-10T00:29:05.208Z,20.90
2022-11-10T00:29:31.848Z,20.90
2022-11-10T00:29:58.748Z,20.80
2022-11-10T00:30:25.449Z,21.00
2022-11-10T00:30:51.355Z,21.00
2022-11-10T00:31:17.893Z,20.90
2022-11-10T00:31:43.554Z,20.90
2022-11-10T00:32:10.104Z,20.80
2022-11-10T00:32:36.747Z,20.90
2022-11-10T00:33:02.806Z,20.90
2022-11-10T00:33:29.005Z,20.80
2022-11-10T00:33:55.056Z,20.90
2022-11-10T00:34:20.937Z,21.10
2022-11-10T00:34:47.498Z,21.10
2022-11-10T00:35:14.145Z,21.00
2022-11-10T00:35:40.344Z,21.00
2022-11-10T00:36:08.618Z,20.90
2022-11-10T00:36:35.164Z,21.00
2022-11-10T00:37:01.725Z,21.00
2022-11-10T00:37:27.073Z,20.80
2022-11-10T00:37:53.763Z,20.80
2022-11-10T00:38:19.378Z,21.00
2022-11-10T00:38:45.065Z,21.20
2022-11-10T00:39:11.515Z,21.30
2022-11-10T00:39:38.460Z,21.00
2022-11-10T00:40:04.047Z,21.10
2022-11-10T00:40:30.811Z,22.00
2022-11-10T00:40:57.196Z,21.50
2022-11-10T00:41:23.845Z,21.40
2022-11-10T00:41:49.646Z,21.50
2022-11-10T00:42:15.448Z,21.20
2022-11-10T00:42:43.845Z,20.80
2022-11-10T00:43:09.497Z,20.60
2022-11-10T00:43:35.412Z,20.80
2022-11-10T00:44:02.148Z,21.10
2022-11-10T00:44:27.646Z,21.00
2022-11-10T00:44:53.644Z,20.60
2022-11-10T00:45:20.041Z,20.50
2022-11-10T00:45:47.346Z,20.10
2022-11-10T00:46:12.248Z,20.00
2022-11-10T00:46:37.799Z,20.40
2022-11-10T00:47:03.141Z,20.10
2022-11-10T00:47:28.742Z,20.00
2022-11-10T00:47:55.445Z,20.00
2022-11-10T00:48:22.200Z,19.70
2022-11-10T00:48:49.088Z,19.90
2022-11-10T00:49:15.745Z,20.30
2022-11-10T00:49:42.597Z,20.10
2022-11-10T00:50:09.550Z,20.10
2022-11-10T00:50:36.198Z,19.60
2022-11-10T00:51:08.489Z,19.70
2022-11-10T00:51:35.196Z,20.00
2022-11-10T00:52:01.690Z,19.40
2022-11-10T00:52:30.892Z,19.00
2022-11-10T00:52:57.543Z,19.40
2022-11-10T00:53:24.529Z,19.80
2022-11-10T00:53:51.342Z,19.80
2022-11-10T00:54:18.195Z,19.40
2022-11-10T00:54:44.847Z,19.50
2022-11-10T00:55:11.896Z,19.80
2022-11-10T00:55:44.145Z,19.40
2022-11-10T00:56:10.896Z,18.80
2022-11-10T00:56:36.289Z,18.00
2022-11-10T00:57:02.789Z,18.20
2022-11-10T00:57:29.299Z,18.20
2022-11-10T00:57:57.701Z,18.30
2022-11-10T00:58:24.394Z,19.00
2022-11-10T00:58:51.195Z,19.20
2022-11-10T00:59:17.794Z,19.50
2022-11-10T00:59:43.991Z,19.90
2022-11-10T01:00:14.540Z,20.10
2022-11-10T01:00:41.199Z,20.20
2022-11-10T01:01:08.221Z,20.40
2022-11-10T01:01:34.001Z,19.70
2022-11-10T01:02:01.593Z,19.60
2022-11-10T01:02:28.235Z,19.60
2022-11-10T01:02:57.933Z,19.60
2022-11-10T01:03:24.843Z,19.60
2022-11-10T01:03:50.730Z,19.30
2022-11-10T01:04:17.535Z,19.30
2022-11-10T01:04:44.285Z,19.60
2022-11-10T01:05:11.482Z,20.00
2022-11-10T01:05:39.731Z,20.50
2022-11-10T01:06:08.784Z,20.30
2022-11-10T01:06:35.827Z,20.40
2022-11-10T01:07:02.405Z,20.30
2022-11-10T01:07:28.183Z,20.50
2022-11-10T01:07:54.587Z,20.40
2022-11-10T01:08:21.280Z,20.60
2022-11-10T01:08:48.085Z,20.70
2022-11-10T01:09:17.432Z,20.60
2022-11-10T01:09:43.627Z,20.60
2022-11-10T01:10:11.033Z,20.70
2022-11-10T01:10:37.677Z,20.80
2022-11-10T01:11:03.275Z,20.90
2022-11-10T01:11:27.283Z,20.90
2022-11-10T01:11:52.981Z,21.10
2022-11-10T01:12:15.912Z,21.20
2022-11-10T01:12:38.660Z,21.20
2022-11-10T01:13:02.776Z,21.40
2022-11-10T01:13:25.544Z,21.30
2022-11-10T01:13:49.451Z,21.10
2022-11-10T01:14:13.296Z,20.60
2022-11-10T01:14:36.047Z,20.70
2022-11-10T01:14:58.975Z,20.90
2022-11-10T01:15:26.177Z,21.10
2022-11-10T01:15:50.423Z,21.00
2022-11-10T01:16:14.430Z,20.90
2022-11-10T01:16:38.085Z,20.70
2022-11-10T01:17:07.679Z,20.60
2022-11-10T01:17:31.051Z,20.10
2022-11-10T01:17:54.489Z,19.70
2022-11-10T01:18:17.301Z,19.50
2022-11-10T01:18:41.213Z,19.30
2022-11-10T01:19:06.370Z,19.50
2022-11-10T01:19:30.417Z,19.60
2022-11-10T01:19:53.254Z,20.00
2022-11-10T01:20:16.190Z,19.90
2022-11-10T01:20:39.039Z,20.10
2022-11-10T01:21:07.779Z,20.50
2022-11-10T01:21:31.084Z,20.80
2022-11-10T01:22:26.129Z,20.60
2022-11-10T01:22:48.903Z,20.30
2022-11-10T01:23:11.683Z,19.90
2022-11-10T01:23:34.480Z,19.90
2022-11-10T01:23:59.868Z,20.20
2022-11-10T01:24:24.767Z,20.20
2022-11-10T01:24:52.859Z,20.10
2022-11-10T01:25:15.841Z,20.40
2022-11-10T01:25:39.063Z,20.50
2022-11-10T01:26:14.425Z,20.50
2022-11-10T01:26:39.295Z,20.50
2022-11-10T01:27:02.105Z,20.60
2022-11-10T01:27:24.889Z,20.50
2022-11-10T01:27:49.465Z,20.50
2022-11-10T01:28:29.949Z,20.60
2022-11-10T01:28:52.664Z,20.70
2022-11-10T01:29:17.455Z,20.70
2022-11-10T01:29:40.219Z,20.70
2022-11-10T01:30:11.604Z,20.70
2022-11-10T01:30:41.017Z,20.60
2022-11-10T01:31:12.488Z,20.70
2022-11-10T01:31:35.840Z,20.60
2022-11-10T01:31:58.580Z,20.60
2022-11-10T01:32:21.335Z,20.80
2022-11-10T01:32:47.059Z,20.90
2022-11-10T01:33:13.695Z,20.80
2022-11-10T01:33:37.784Z,20.90
2022-11-10T01:34:00.484Z,21.00
2022-11-10T01:34:23.260Z,21.00
2022-11-10T01:34:46.045Z,21.00
2022-11-10T01:35:18.851Z,21.10
2022-11-10T01:35:45.485Z,21.10
2022-11-10T01:36:15.131Z,21.20
2022-11-10T01:36:39.701Z,21.20
2022-11-10T01:37:03.187Z,21.40
2022-11-10T01:37:31.024Z,21.30
2022-11-10T01:37:53.860Z,21.20
2022-11-10T01:38:18.627Z,21.20
2022-11-10T01:38:44.270Z,21.30
2022-11-10T01:39:11.236Z,21.20
2022-11-10T01:39:34.569Z,21.30
2022-11-10T01:40:12.216Z,21.20
2022-11-10T01:40:41.472Z,21.30
2022-11-10T01:41:05.671Z,21.30
2022-11-10T01:41:42.070Z,21.30
2022-11-10T01:42:04.980Z,21.40
2022-11-10T01:42:40.009Z,20.90
2022-11-10T01:43:08.629Z,20.50
2022-11-10T01:43:33.045Z,20.10
2022-11-10T01:44:14.560Z,20.00
2022-11-10T01:44:40.156Z,20.50
2022-11-10T01:45:41.862Z,20.40
2022-11-10T01:46:10.429Z,20.30
2022-11-10T01:46:39.991Z,20.50
2022-11-10T01:47:03.010Z,20.90
2022-11-10T01:47:26.506Z,20.80
2022-11-10T01:47:49.414Z,20.80
2022-11-10T01:48:22.360Z,20.80
2022-11-10T01:48:49.954Z,20.90
2022-11-10T01:49:16.016Z,20.40
2022-11-10T01:49:39.081Z,19.90
2022-11-10T01:50:05.384Z,19.50
2022-11-10T01:50:34.045Z,19.40
2022-11-10T01:50:56.885Z,19.20
2022-11-10T01:51:27.470Z,19.30
2022-11-10T01:51:52.087Z,19.20
2022-11-10T01:52:15.250Z,19.60
2022-11-10T01:52:39.293Z,19.90
2022-11-10T01:53:05.332Z,19.50
2022-11-10T01:53:31.607Z,19.50
2022-11-10T01:53:55.176Z,19.80
2022-11-10T01:54:19.844Z,19.80
2022-11-10T01:54:46.775Z,20.10
2022-11-10T01:55:21.700Z,20.00
2022-11-10T01:55:44.960Z,20.10
2022-11-10T01:56:07.929Z,19.90
2022-11-10T01:56:32.730Z,19.80
2022-11-10T01:56:58.276Z,20.50
2022-11-10T01:57:39.051Z,20.30
2022-11-10T01:58:02.860Z,20.00
2022-11-10T01:58:33.935Z,19.30
2022-11-10T01:58:58.880Z,19.80
2022-11-10T01:59:29.286Z,19.70
2022-11-10T01:59:53.570Z,20.50
2022-11-10T02:00:22.076Z,20.60
2022-11-10T02:00:44.901Z,20.70
2022-11-10T02:01:07.884Z,20.60
2022-11-10T02:01:32.319Z,20.50
2022-11-10T02:01:57.230Z,20.50
2022-11-10T02:02:26.279Z,20.30
2022-11-10T02:02:53.544Z,20.40
2022-11-10T02:03:20.824Z,20.30
2022-11-10T02:03:46.620Z,20.30
2022-11-10T02:04:11.141Z,20.00
2022-11-10T02:04:34.326Z,20.30
2022-11-10T02:04:58.176Z,20.10
2022-11-10T02:05:21.766Z,19.90
2022-11-10T02:05:44.805Z,19.90
2022-11-10T02:06:18.773Z,19.80
2022-11-10T02:06:43.928Z,19.60
2022-11-10T02:07:09.219Z,19.90
2022-11-10T02:07:42.236Z,19.80
2022-11-10T02:08:05.924Z,19.90
2022-11-10T02:08:28.634Z,20.10
2022-11-10T02:08:51.725Z,20.50
2022-11-10T02:09:30.441Z,20.40
2022-11-10T02:09:53.555Z,20.40
2022-11-10T02:10:20.017Z,20.50
2022-11-10T02:10:46.573Z,20.30
2022-11-10T02:11:12.494Z,20.50
2022-11-10T02:11:35.997Z,20.50
2022-11-10T02:12:02.280Z,20.70
2022-11-10T02:12:38.722Z,20.60
2022-11-10T02:13:03.319Z,20.80
2022-11-10T02:13:27.520Z,21.30
2022-11-10T02:13:51.679Z,21.30
2022-11-10T02:14:14.506Z,20.70
2022-11-10T02:14:40.175Z,20.10
2022-11-10T02:15:08.271Z,20.00
2022-11-10T02:15:40.044Z,19.60
2022-11-10T02:16:02.770Z,19.30
2022-11-10T02:16:25.716Z,19.20
2022-11-10T02:16:48.485Z,19.10
2022-11-10T02:17:11.531Z,19.20
2022-11-10T02:17:37.441Z,19.90
2022-11-10T02:18:22.580Z,19.40
2022-11-10T02:18:46.806Z,19.60
2022-11-10T02:19:16.634Z,20.00
2022-11-10T02:19:45.720Z,20.40
2022-11-10T02:20:28.014Z,20.10
2022-11-10T02:20:52.255Z,20.00
2022-11-10T02:21:16.933Z,19.90
2022-11-10T02:21:39.925Z,20.40
2022-11-10T02:22:02.675Z,20.40
2022-11-10T02:22:25.434Z,20.40
2022-11-10T02:22:48.311Z,20.20
2022-11-10T02:23:14.960Z,20.20
2022-11-10T02:23:46.029Z,20.70
2022-11-10T02:24:08.947Z,21.10
2022-11-10T02:24:31.727Z,20.80
2022-11-10T02:24:54.560Z,20.50
2022-11-10T02:25:20.019Z,19.90
2022-11-10T02:25:42.875Z,19.60
2022-11-10T02:26:06.377Z,19.70
2022-11-10T02:26:29.988Z,19.10
2022-11-10T02:26:54.727Z,19.00
2022-11-10T02:27:18.268Z,18.60
2022-11-10T02:27:41.013Z,18.50
2022-11-10T02:28:03.949Z,18.20
2022-11-10T02:28:27.369Z,18.50
2022-11-10T02:28:50.178Z,18.50
2022-11-10T02:29:13.062Z,18.90
2022-11-10T02:29:35.842Z,19.40
2022-11-10T02:30:01.184Z,19.20
2022-11-10T02:30:27.501Z,18.80
2022-11-10T02:30:53.669Z,18.20
2022-11-10T02:31:20.810Z,17.80
2022-11-10T02:31:43.993Z,18.10
2022-11-10T02:32:06.851Z,18.00
2022-11-10T02:32:29.756Z,18.10
2022-11-10T02:32:59.890Z,18.20
2022-11-10T02:33:23.104Z,17.70
2022-11-10T02:33:56.696Z,17.60
2022-11-10T02:34:20.108Z,17.70
2022-11-10T02:35:08.805Z,18.10
2022-11-10T02:35:35.696Z,18.60
2022-11-10T02:36:10.261Z,19.00
2022-11-10T02:36:34.503Z,18.80
2022-11-10T02:36:57.236Z,18.00
2022-11-10T02:37:21.243Z,17.80
2022-11-10T02:37:46.348Z,17.80
2022-11-10T02:38:10.402Z,18.20
2022-11-10T02:38:37.257Z,18.60
2022-11-10T02:39:03.796Z,18.60
2022-11-10T02:39:27.369Z,18.90
2022-11-10T02:39:50.230Z,18.60
2022-11-10T02:40:16.931Z,18.70
2022-11-10T02:40:46.127Z,18.90
2022-11-10T02:41:13.329Z,18.70
2022-11-10T02:41:39.538Z,18.50
2022-11-10T02:42:02.307Z,18.10
2022-11-10T02:42:27.123Z,18.30
2022-11-10T02:42:52.147Z,18.50
2022-11-10T02:43:20.994Z,19.20
2022-11-10T02:43:44.842Z,18.60
2022-11-10T02:44:07.612Z,18.50
2022-11-10T02:44:30.566Z,18.50
2022-11-10T02:44:58.885Z,18.60
2022-11-10T02:45:21.705Z,18.80
2022-11-10T02:45:54.935Z,18.90
2022-11-10T02:46:20.226Z,19.10
2022-11-10T02:46:43.058Z,19.20
2022-11-10T02:47:05.917Z,19.00
2022-11-10T02:47:29.947Z,19.00
2022-11-10T02:47:53.139Z,19.10
2022-11-10T02:48:17.648Z,19.30
2022-11-10T02:48:42.217Z,19.20
2022-11-10T02:49:10.384Z,19.50
2022-11-10T02:49:34.320Z,19.80
2022-11-10T02:49:57.397Z,19.70
2022-11-10T02:50:21.682Z,19.70
2022-11-10T02:50:55.253Z,19.50
2022-11-10T02:51:19.625Z,19.70
2022-11-10T02:51:43.134Z,19.90
2022-11-10T02:52:06.128Z,19.90
2022-11-10T02:52:28.875Z,19.80
2022-11-10T02:52:51.712Z,19.70
2022-11-10T02:53:15.108Z,19.70
2022-11-10T02:53:37.824Z,19.60
2022-11-10T02:54:00.843Z,19.20
2022-11-10T02:54:23.546Z,19.50
2022-11-10T02:54:46.294Z,19.90
2022-11-10T02:55:09.388Z,20.20
2022-11-10T02:55:32.168Z,20.00
2022-11-10T02:55:55.850Z,19.80
2022-11-10T02:56:18.789Z,19.80
2022-11-10T02:56:41.519Z,19.80
2022-11-10T02:57:04.491Z,20.00
2022-11-10T02:57:27.229Z,20.20
2022-11-10T02:57:52.819Z,20.00
2022-11-10T02:58:15.634Z,20.00
2022-11-10T02:58:38.415Z,19.90
2022-11-10T02:59:01.227Z,20.00
2022-11-10T02:59:24.054Z,20.30
2022-11-10T02:59:46.950Z,20.30
2022-11-10T03:00:11.596Z,20.20
2022-11-10T03:00:34.362Z,20.20
2022-11-10T03:00:59.593Z,20.00
2022-11-10T03:01:23.445Z,20.10
2022-11-10T03:01:46.318Z,20.30
2022-11-10T03:02:09.146Z,20.40
2022-11-10T03:02:32.439Z,20.40
2022-11-10T03:02:56.488Z,20.30
2022-11-10T03:03:19.463Z,20.20
2022-11-10T03:03:42.674Z,20.20
2022-11-10T03:04:06.299Z,20.50
2022-11-10T03:04:29.024Z,20.60
2022-11-10T03:04:51.792Z,20.70
2022-11-10T03:05:14.458Z,20.70
2022-11-10T03:05:37.231Z,20.70
2022-11-10T03:06:00.496Z,20.60
2022-11-10T03:06:24.974Z,20.50
2022-11-10T03:06:47.864Z,20.10
2022-11-10T03:07:10.661Z,20.10
2022-11-10T03:07:33.546Z,20.10
2022-11-10T03:07:56.497Z,20.00
2022-11-10T03:08:19.411Z,20.00
2022-11-10T03:08:42.197Z,20.00
2022-11-10T03:09:04.936Z,19.90
2022-11-10T03:09:27.682Z,20.10
2022-11-10T03:09:50.918Z,20.00
2022-11-10T03:10:13.643Z,20.10
2022-11-10T03:10:36.348Z,20.20
2022-11-10T03:10:59.738Z,20.50
2022-11-10T03:11:22.521Z,20.00
2022-11-10T03:11:45.446Z,20.10
2022-11-10T03:12:08.217Z,20.20
2022-11-10T03:12:31.218Z,20.20
2022-11-10T03:12:55.440Z,20.20
2022-11-10T03:13:18.255Z,20.10
2022-11-10T03:14:00.306Z,20.10
2022-11-10T03:14:23.646Z,20.10
2022-11-10T03:14:46.396Z,20.10
2022-11-10T03:15:10.252Z,20.20
2022-11-10T03:15:32.990Z,20.30
2022-11-10T03:15:55.687Z,20.20
2022-11-10T03:16:18.431Z,20.30
2022-11-10T03:16:41.179Z,20.30
2022-11-10T03:17:03.936Z,20.20
2022-11-10T03:17:26.663Z,20.20
2022-11-10T03:17:49.461Z,20.20
2022-11-10T03:18:12.183Z,20.20
2022-11-10T03:18:35.016Z,20.40
2022-11-10T03:18:57.765Z,20.50
2022-11-10T03:19:20.517Z,20.90
2022-11-10T03:19:43.227Z,20.30
2022-11-10T03:20:06.582Z,20.30
2022-11-10T03:20:29.377Z,20.80
2022-11-10T03:20:52.271Z,20.30
2022-11-10T03:21:15.140Z,20.20
2022-11-10T03:21:39.327Z,20.20
2022-11-10T03:22:02.578Z,20.20
2022-11-10T03:22:25.388Z,20.10
2022-11-10T03:22:48.124Z,20.10
2022-11-10T03:23:10.886Z,20.10
2022-11-10T03:23:33.642Z,20.10
2022-11-10T03:23:56.411Z,20.00
2022-11-10T03:24:19.127Z,20.00
2022-11-10T03:24:41.811Z,20.00
2022-11-10T03:25:08.492Z,20.10
2022-11-10T03:25:31.288Z,19.80
2022-11-10T03:25:56.656Z,19.90
2022-11-10T03:26:19.533Z,19.90
2022-11-10T03:26:42.299Z,19.90
2022-11-10T03:27:05.092Z,19.90
2022-11-10T03:27:27.874Z,19.90
2022-11-10T03:27:50.597Z,20.10
2022-11-10T03:28:13.382Z,20.20
2022-11-10T03:28:36.101Z,20.00
2022-11-10T03:28:58.971Z,20.00
2022-11-10T03:29:21.826Z,20.00
2022-11-10T03:29:44.552Z,20.00
2022-11-10T03:30:08.723Z,20.00
2022-11-10T03:30:31.568Z,20.00
2022-11-10T03:30:54.535Z,20.10
2022-11-10T03:31:17.257Z,20.10
2022-11-10T03:31:40.033Z,20.20
2022-11-10T03:32:02.752Z,20.20
2022-11-10T03:32:25.626Z,20.10
2022-11-10T03:32:48.454Z,20.10
2022-11-10T03:33:11.369Z,20.10
2022-11-10T03:33:34.175Z,20.10
2022-11-10T03:33:56.969Z,20.10
2022-11-10T03:34:19.779Z,20.20
2022-11-10T03:34:42.540Z,20.20
2022-11-10T03:35:06.298Z,20.40
2022-11-10T03:35:29.157Z,20.40
2022-11-10T03:35:51.897Z,20.30
2022-11-10T03:36:14.743Z,20.40
2022-11-10T03:36:38.954Z,20.50
2022-11-10T03:37:01.740Z,20.50
2022-11-10T03:37:24.589Z,20.40
2022-11-10T03:37:47.404Z,20.50
2022-11-10T03:38:10.124Z,20.50
2022-11-10T03:38:32.876Z,20.50
2022-11-10T03:38:55.610Z,20.60
2022-11-10T03:39:18.469Z,20.60
2022-11-10T03:39:41.529Z,20.50
2022-11-10T03:40:04.735Z,20.50
2022-11-10T03:40:27.550Z,20.60
2022-11-10T03:41:17.476Z,20.60
2022-11-10T03:41:33.750Z,20.70
2022-11-10T03:41:56.576Z,20.90
2022-11-10T03:42:19.300Z,20.70
2022-11-10T03:42:43.196Z,21.00
2022-11-10T03:43:05.980Z,20.70
2022-11-10T03:43:28.682Z,20.70
2022-11-10T03:43:51.516Z,20.80
2022-11-10T03:44:14.246Z,20.80
2022-11-10T03:44:37.067Z,21.00
2022-11-10T03:44:59.755Z,20.80
2022-11-10T03:45:22.682Z,21.00
2022-11-10T03:45:45.470Z,20.70
2022-11-10T03:46:08.862Z,20.70
2022-11-10T03:46:31.922Z,20.70
2022-11-10T03:46:54.651Z,20.70
2022-11-10T03:47:17.358Z,20.70
2022-11-10T03:47:40.021Z,20.60
2022-11-10T03:48:02.762Z,20.70
2022-11-10T03:48:25.432Z,20.80
2022-11-10T03:48:53.160Z,20.80
2022-11-10T03:49:16.527Z,21.00
2022-11-10T03:49:40.039Z,21.00
2022-11-10T03:50:02.736Z,21.00
2022-11-10T03:50:25.455Z,21.00
2022-11-10T03:50:48.173Z,21.00
2022-11-10T03:51:10.890Z,20.90
2022-11-10T03:51:33.688Z,20.90
2022-11-10T03:51:57.966Z,21.00
2022-11-10T03:52:20.710Z,20.90
2022-11-10T03:52:44.270Z,20.90
2022-11-10T03:53:07.095Z,21.00
2022-11-10T03:53:30.031Z,20.90
2022-11-10T03:53:52.791Z,20.90
2022-11-10T03:54:15.546Z,21.00
2022-11-10T03:54:38.666Z,21.10
2022-11-10T03:55:03.494Z,21.00
2022-11-10T03:55:26.600Z,20.90
2022-11-10T03:55:49.339Z,20.80
2022-11-10T03:56:12.056Z,20.80
2022-11-10T03:56:34.826Z,20.90
2022-11-10T03:56:57.536Z,20.80
2022-11-10T03:57:20.281Z,20.80
2022-11-10T03:57:43.146Z,20.80
2022-11-10T03:58:05.751Z,20.70
2022-11-10T03:58:28.490Z,20.80
2022-11-10T03:58:51.266Z,20.80
2022-11-10T03:59:13.946Z,21.00
2022-11-10T03:59:36.618Z,21.00
2022-11-10T03:59:59.525Z,20.90
2022-11-10T04:00:22.296Z,21.00
2022-11-10T04:00:44.993Z,20.90
2022-11-10T04:01:07.887Z,20.90
2022-11-10T04:01:30.693Z,21.00
2022-11-10T04:01:53.516Z,21.00
2022-11-10T04:02:16.339Z,21.20
2022-11-10T04:02:39.206Z,21.10
2022-11-10T04:03:01.916Z,21.00
2022-11-10T04:03:25.169Z,21.10
2022-11-10T04:03:51.485Z,20.80
2022-11-10T04:04:33.143Z,20.70
2022-11-10T04:05:14.410Z,20.80
2022-11-10T04:05:55.697Z,21.40
2022-11-10T04:06:39.444Z,21.30
2022-11-10T04:07:22.279Z,21.30
2022-11-10T04:08:03.767Z,21.10
2022-11-10T04:08:45.370Z,20.80
2022-11-10T04:09:08.091Z,20.80
2022-11-10T04:09:30.816Z,21.00
2022-11-10T04:09:53.495Z,20.90
2022-11-10T04:10:16.234Z,20.90
2022-11-10T04:10:38.976Z,20.90
2022-11-10T04:11:02.099Z,20.90
2022-11-10T04:11:43.212Z,21.30
2022-11-10T04:12:25.297Z,21.30
2022-11-10T04:13:06.790Z,20.90
2022-11-10T04:13:48.151Z,20.90
2022-11-10T04:14:29.702Z,20.90
2022-11-10T04:15:11.040Z,21.30
2022-11-10T04:15:42.915Z,21.30
2022-11-10T04:16:05.778Z,20.90
2022-11-10T04:16:28.736Z,20.80
2022-11-10T04:16:51.456Z,21.00
2022-11-10T04:17:14.160Z,21.20
2022-11-10T04:17:36.892Z,21.20
2022-11-10T04:18:19.594Z,21.00
2022-11-10T04:18:42.406Z,20.50
2022-11-10T04:19:05.291Z,20.60
2022-11-10T04:19:28.165Z,20.60
2022-11-10T04:19:50.891Z,20.50
2022-11-10T04:20:13.631Z,20.60
2022-11-10T04:20:38.736Z,20.90
2022-11-10T04:21:02.414Z,20.80
2022-11-10T04:21:25.130Z,20.80
2022-11-10T04:21:47.866Z,20.80
2022-11-10T04:22:32.098Z,20.40
2022-11-10T04:23:27.216Z,20.50
2022-11-10T04:23:52.431Z,20.50
2022-11-10T04:24:15.206Z,20.70
2022-11-10T04:24:37.936Z,20.70
2022-11-10T04:25:00.911Z,20.70
2022-11-10T04:25:23.616Z,20.40
2022-11-10T04:26:06.251Z,19.80
2022-11-10T04:26:29.006Z,19.00
2022-11-10T04:26:51.766Z,19.30
2022-11-10T04:27:14.570Z,19.50
2022-11-10T04:27:38.771Z,19.40
2022-11-10T04:28:01.460Z,19.50
2022-11-10T04:28:24.153Z,19.60
2022-11-10T04:28:48.816Z,19.30
2022-11-10T04:29:12.353Z,19.70
2022-11-10T04:29:35.415Z,19.60
2022-11-10T04:29:58.150Z,19.80
2022-11-10T04:30:20.970Z,19.90
2022-11-10T04:30:44.916Z,19.80
2022-11-10T04:31:10.277Z,19.50
2022-11-10T04:31:34.175Z,19.40
2022-11-10T04:31:56.882Z,19.80
2022-11-10T04:32:19.656Z,19.30
2022-11-10T04:32:42.410Z,19.00
2022-11-10T04:33:05.132Z,18.60
2022-11-10T04:33:27.896Z,18.30
2022-11-10T04:33:50.755Z,18.00
2022-11-10T04:34:14.462Z,18.00
2022-11-10T04:34:37.278Z,18.40
2022-11-10T04:34:59.998Z,18.50
2022-11-10T04:35:22.717Z,18.50
2022-11-10T04:35:45.449Z,18.90
2022-11-10T04:36:09.340Z,19.50
2022-11-10T04:36:33.002Z,19.00
2022-11-10T04:36:55.788Z,18.70
2022-11-10T04:37:19.929Z,17.80
2022-11-10T04:37:42.771Z,18.30
2022-11-10T04:38:05.601Z,18.40
2022-11-10T04:38:28.319Z,18.70
2022-11-10T04:38:51.127Z,19.20
2022-11-10T04:39:13.848Z,19.10
2022-11-10T04:39:36.552Z,19.30
2022-11-10T04:39:59.343Z,19.50
2022-11-10T04:40:22.161Z,19.20
2022-11-10T04:40:44.907Z,19.30
2022-11-10T04:41:08.030Z,19.90
2022-11-10T04:41:30.762Z,19.90
2022-11-10T04:41:55.204Z,19.30
2022-11-10T04:42:21.223Z,19.20
2022-11-10T04:42:43.863Z,19.00
2022-11-10T04:43:06.613Z,19.70
2022-11-10T04:43:29.448Z,19.70
2022-11-10T04:43:52.303Z,19.80
2022-11-10T04:44:15.138Z,19.30
2022-11-10T04:44:38.179Z,18.70
2022-11-10T04:45:00.933Z,18.40
2022-11-10T04:45:23.738Z,18.50
2022-11-10T04:45:46.488Z,19.10
2022-11-10T04:46:13.769Z,19.80
2022-11-10T04:46:37.779Z,19.90
2022-11-10T04:47:00.519Z,19.80
2022-11-10T04:47:23.207Z,19.30
2022-11-10T04:47:46.039Z,19.40
2022-11-10T04:48:08.808Z,18.50
2022-11-10T04:48:33.764Z,18.00
2022-11-10T04:48:56.485Z,18.00
2022-11-10T04:49:19.114Z,18.20
2022-11-10T04:49:41.898Z,18.50
2022-11-10T04:50:05.386Z,18.60
2022-11-10T04:50:28.019Z,17.90
2022-11-10T04:50:50.764Z,18.70
2022-11-10T04:51:15.600Z,19.20
2022-11-10T04:51:41.035Z,19.50
2022-11-10T04:52:03.980Z,19.60
2022-11-10T04:52:28.355Z,19.30
2022-11-10T04:52:51.142Z,19.20
2022-11-10T04:53:13.924Z,19.10
2022-11-10T04:53:36.708Z,18.90
2022-11-10T04:54:02.222Z,19.10
2022-11-10T04:54:25.143Z,19.10
2022-11-10T04:54:47.929Z,19.30
2022-11-10T04:55:10.623Z,19.60
2022-11-10T04:55:33.327Z,19.80
2022-11-10T04:55:56.083Z,20.10
2022-11-10T04:56:19.948Z,20.00
2022-11-10T04:56:42.729Z,19.80
2022-11-10T04:57:05.448Z,19.60
2022-11-10T04:57:28.161Z,19.70
2022-11-10T04:57:50.968Z,19.70
2022-11-10T04:58:13.658Z,20.10
2022-11-10T04:58:36.464Z,20.50
2022-11-10T04:58:59.504Z,20.40
2022-11-10T04:59:22.399Z,20.40
2022-11-10T04:59:45.210Z,20.30
2022-11-10T05:00:10.729Z,20.00
2022-11-10T05:00:33.591Z,19.90
2022-11-10T05:00:56.515Z,20.30
2022-11-10T05:01:20.408Z,20.50
2022-11-10T05:01:43.229Z,20.60
2022-11-10T05:02:06.070Z,20.60
2022-11-10T05:02:28.782Z,20.60
2022-11-10T05:02:51.633Z,20.40
2022-11-10T05:03:14.479Z,20.20
2022-11-10T05:03:37.108Z,19.90
2022-11-10T05:04:00.133Z,20.10
2022-11-10T05:04:23.233Z,20.10
2022-11-10T05:04:46.678Z,20.10
2022-11-10T05:05:10.332Z,19.50
2022-11-10T05:05:33.058Z,20.00
2022-11-10T05:05:55.820Z,20.00
2022-11-10T05:06:18.657Z,19.90
2022-11-10T05:06:41.501Z,19.20
2022-11-10T05:07:04.397Z,18.90
2022-11-10T05:07:28.669Z,18.90
2022-11-10T05:07:51.536Z,19.10
2022-11-10T05:08:14.404Z,19.20
2022-11-10T05:08:37.211Z,20.10
2022-11-10T05:09:00.076Z,19.40
2022-11-10T05:09:22.776Z,19.30
2022-11-10T05:09:45.639Z,18.60
2022-11-10T05:10:09.452Z,19.00
2022-11-10T05:10:32.155Z,18.90
2022-11-10T05:10:54.901Z,19.10
2022-11-10T05:11:17.640Z,19.10
2022-11-10T05:11:40.371Z,19.40
2022-11-10T05:12:03.109Z,19.10
2022-11-10T05:12:25.850Z,19.20
2022-11-10T05:12:48.580Z,19.40
2022-11-10T05:13:11.907Z,20.00
2022-11-10T05:13:34.672Z,19.70
2022-11-10T05:13:57.463Z,19.30
2022-11-10T05:14:22.903Z,19.50
2022-11-10T05:14:45.629Z,19.60
2022-11-10T05:15:10.048Z,19.80
2022-11-10T05:15:33.310Z,20.10
2022-11-10T05:15:56.032Z,20.00
2022-11-10T05:16:18.739Z,20.00
2022-11-10T05:16:41.509Z,20.00
2022-11-10T05:17:04.267Z,20.10
2022-11-10T05:17:27.027Z,20.00
2022-11-10T05:17:50.887Z,19.90
2022-11-10T05:18:13.669Z,20.10
2022-11-10T05:18:36.582Z,20.20
2022-11-10T05:18:59.375Z,20.30
2022-11-10T05:19:22.157Z,20.20
2022-11-10T05:19:44.887Z,20.20
2022-11-10T05:20:09.147Z,20.30
2022-11-10T05:20:31.938Z,20.50
2022-11-10T05:20:54.652Z,20.70
2022-11-10T05:21:19.904Z,20.70
2022-11-10T05:21:42.752Z,20.80
2022-11-10T05:22:07.322Z,20.80
2022-11-10T05:22:31.600Z,20.90
2022-11-10T05:23:12.866Z,20.70
2022-11-10T05:23:38.433Z,21.10
2022-11-10T05:24:01.202Z,20.50
2022-11-10T05:24:24.022Z,20.50
2022-11-10T05:24:46.836Z,20.20
2022-11-10T05:25:10.032Z,20.30